createdAt,value
2022-11-28T00:18:22.360Z,12.20
2022-11-28T00:19:24.127Z,11.50
2022-11-28T00:20:26.056Z,15.44
2022-11-28T00:21:28.964Z,14.67
2022-11-28T00:22:30.800Z,11.82
2022-11-28T00:23:33.102Z,13.56
2022-11-28T00:24:34.994Z,12.90
2022-11-28T00:25:36.723Z,13.56
2022-11-28T00:26:41.176Z,12.78
2022-11-28T00:27:43.094Z,11.50
2022-11-28T00:28:44.939Z,10.44
2022-11-28T00:29:46.746Z,10.78
2022-11-28T00:31:59.971Z,11.70
2022-11-28T00:33:01.889Z,12.00
2022-11-28T00:34:03.982Z,11.00
2022-11-28T00:35:06.440Z,11.56
2022-11-28T00:36:09.428Z,12.64
2022-11-28T00:37:11.185Z,9.10
2022-11-28T00:38:13.018Z,10.22
2022-11-28T00:39:15.822Z,11.89
2022-11-28T00:40:18.044Z,11.20
2022-11-28T00:41:23.019Z,9.80
2022-11-28T00:42:24.859Z,10.20
2022-11-28T00:43:27.410Z,10.56
2022-11-28T00:44:29.322Z,10.10
2022-11-28T00:45:31.263Z,11.90
2022-11-28T00:46:33.201Z,15.20
2022-11-28T00:47:35.353Z,15.00
2022-11-28T00:48:37.235Z,15.00
2022-11-28T00:49:38.960Z,14.33
2022-11-28T00:50:41.090Z,18.40
2022-11-28T00:51:42.691Z,13.78
2022-11-28T00:52:44.421Z,15.00
2022-11-28T00:53:48.222Z,13.33
2022-11-28T00:54:50.012Z,9.70
2022-11-28T00:55:51.645Z,12.22
2022-11-28T00:56:53.346Z,14.11
2022-11-28T00:57:54.958Z,14.33
2022-11-28T00:58:57.391Z,12.00
2022-11-28T00:59:59.459Z,11.50
2022-11-28T01:01:10.691Z,12.70
2022-11-28T01:02:12.751Z,12.40
2022-11-28T01:03:14.800Z,11.80
2022-11-28T01:04:16.796Z,13.22
2022-11-28T01:05:18.522Z,13.50
2022-11-28T01:06:23.854Z,15.78
2022-11-28T01:07:26.140Z,17.80
2022-11-28T01:08:28.076Z,19.40
2022-11-28T01:09:30.386Z,11.44
2022-11-28T01:10:32.379Z,15.00
2022-11-28T01:11:36.411Z,11.33
2022-11-28T01:12:38.342Z,12.40
2022-11-28T01:13:41.095Z,13.90
2022-11-28T01:14:42.940Z,11.40
2022-11-28T01:15:44.956Z,11.00
2022-11-28T01:16:46.926Z,12.33
2022-11-28T01:17:48.790Z,16.70
2022-11-28T01:18:51.100Z,14.44
2022-11-28T01:19:52.998Z,10.90
2022-11-28T01:20:54.810Z,13.22
2022-11-28T01:21:57.538Z,19.89
2022-11-28T01:22:59.416Z,18.30
2022-11-28T01:24:02.077Z,23.33
2022-11-28T01:25:04.755Z,22.50
2022-11-28T01:26:10.542Z,25.55
2022-11-28T01:27:12.564Z,28.50
2022-11-28T01:28:17.598Z,20.44
2022-11-28T01:29:19.568Z,18.30
2022-11-28T01:30:21.474Z,16.89
2022-11-28T01:31:25.588Z,10.44
2022-11-28T01:32:27.682Z,14.20
2022-11-28T01:33:31.008Z,10.89
2022-11-28T01:34:32.849Z,9.50
2022-11-28T01:35:34.585Z,10.11
2022-11-28T01:36:36.390Z,4.56
2022-11-28T01:37:39.383Z,11.78
2022-11-28T01:38:41.715Z,12.09
2022-11-28T01:39:43.500Z,14.00
2022-11-28T01:40:47.313Z,11.33
2022-11-28T01:41:49.410Z,12.10
2022-11-28T01:42:51.189Z,10.30
2022-11-28T01:44:02.432Z,8.78
2022-11-28T01:45:17.127Z,12.20
2022-11-28T01:46:19.010Z,12.40
2022-11-28T01:47:24.468Z,13.56
2022-11-28T01:49:39.791Z,14.80
2022-11-28T01:50:43.461Z,13.50
2022-11-28T01:51:51.731Z,13.40
2022-11-28T01:52:57.405Z,14.20
2022-11-28T01:53:59.633Z,12.20
2022-11-28T01:55:02.603Z,11.70
2022-11-28T01:56:26.363Z,14.30
2022-11-28T01:57:29.283Z,12.50
2022-11-28T01:58:34.126Z,12.36
2022-11-28T01:59:40.500Z,11.60
2022-11-28T02:00:42.620Z,7.10
2022-11-28T02:01:45.387Z,11.70
2022-11-28T02:02:51.870Z,13.70
2022-11-28T02:03:54.784Z,14.00
2022-11-28T02:04:58.018Z,13.73
2022-11-28T02:05:59.934Z,13.00
2022-11-28T02:07:01.846Z,11.56
2022-11-28T02:08:04.809Z,9.80
2022-11-28T02:09:12.878Z,9.27
2022-11-28T02:10:18.441Z,9.00
2022-11-28T02:11:36.778Z,3.10
2022-11-28T02:12:44.947Z,5.60
2022-11-28T02:14:17.772Z,7.10
2022-11-28T02:15:23.343Z,3.40
2022-11-28T02:16:40.533Z,4.10
2022-11-28T02:17:49.279Z,4.60
2022-11-28T02:19:00.802Z,5.00
2022-11-28T02:20:23.371Z,5.20
2022-11-28T02:21:45.840Z,16.30
2022-11-28T02:23:06.825Z,13.40
2022-11-28T02:24:24.985Z,12.50
2022-11-28T02:26:05.772Z,16.60
2022-11-28T02:27:37.351Z,3.20
2022-11-28T02:28:48.572Z,20.60
2022-11-28T02:30:03.333Z,19.90
2022-11-28T02:31:11.822Z,16.30
2022-11-28T02:32:34.337Z,15.10
2022-11-28T02:33:39.823Z,6.10
2022-11-28T02:35:06.901Z,5.60
2022-11-28T02:36:21.040Z,4.70
2022-11-28T02:37:32.677Z,5.80
2022-11-28T02:38:47.021Z,4.90
2022-11-28T02:40:01.837Z,4.20
2022-11-28T02:41:25.230Z,3.10
2022-11-28T02:42:39.663Z,2.80
2022-11-28T02:43:48.463Z,3.00
2022-11-28T02:44:54.036Z,3.40
2022-11-28T02:46:02.539Z,3.30
2022-11-28T02:47:11.190Z,4.50
2022-11-28T02:48:22.597Z,4.00
2022-11-28T02:49:37.640Z,3.20
2022-11-28T02:50:43.239Z,3.10
2022-11-28T02:51:48.710Z,4.00
2022-11-28T02:53:06.205Z,4.00
2022-11-28T02:54:11.328Z,5.80
2022-11-28T02:55:14.651Z,3.80
2022-11-28T02:56:17.061Z,4.60
2022-11-28T02:57:18.855Z,4.90
2022-11-28T02:58:20.451Z,5.00
2022-11-28T02:59:37.701Z,3.44
2022-11-28T03:00:43.228Z,4.50
2022-11-28T03:01:45.203Z,3.30
2022-11-28T03:02:50.400Z,4.40
2022-11-28T03:03:55.859Z,2.90
2022-11-28T03:05:16.502Z,3.90
2022-11-28T03:06:28.282Z,3.40
2022-11-28T03:07:42.628Z,3.00
2022-11-28T03:08:54.340Z,3.00
2022-11-28T03:10:02.559Z,3.10
2022-11-28T03:11:08.059Z,3.00
2022-11-28T03:12:36.218Z,3.80
2022-11-28T03:14:00.649Z,3.10
2022-11-28T03:15:05.869Z,3.00
2022-11-28T03:16:29.017Z,3.00
2022-11-28T03:17:55.970Z,3.80
2022-11-28T03:19:10.648Z,4.40
2022-11-28T03:20:19.184Z,4.50
2022-11-28T03:21:33.852Z,4.40
2022-11-28T03:22:51.581Z,4.10
2022-11-28T03:24:06.637Z,4.00
2022-11-28T03:25:27.362Z,4.30
2022-11-28T03:27:48.844Z,4.50
2022-11-28T03:29:04.705Z,3.50
2022-11-28T03:30:13.370Z,4.00
2022-11-28T03:31:22.124Z,4.20
2022-11-28T03:32:27.865Z,4.00
2022-11-28T03:33:35.937Z,4.00
2022-11-28T03:34:41.614Z,5.40
2022-11-28T03:35:47.524Z,2.70
2022-11-28T03:36:56.927Z,4.20
2022-11-28T03:38:13.935Z,3.30
2022-11-28T03:39:19.480Z,4.50
2022-11-28T03:40:25.080Z,3.50
2022-11-28T03:41:38.541Z,3.80
2022-11-28T03:42:44.020Z,4.40
2022-11-28T03:43:49.550Z,5.00
2022-11-28T03:45:03.885Z,4.10
2022-11-28T03:46:09.583Z,4.50
2022-11-28T03:47:11.711Z,4.20
2022-11-28T03:48:17.290Z,4.60
2022-11-28T03:50:39.363Z,5.30
2022-11-28T03:51:47.950Z,0.40
2022-11-28T03:52:53.528Z,4.90
2022-11-28T03:54:01.658Z,5.30
2022-11-28T03:55:13.121Z,4.20
2022-11-28T03:56:18.786Z,5.20
2022-11-28T03:57:29.827Z,5.10
2022-11-28T03:58:41.517Z,5.40
2022-11-28T03:59:52.518Z,5.30
2022-11-28T04:02:21.790Z,9.00
2022-11-28T04:03:33.516Z,8.10
2022-11-28T04:04:39.154Z,9.30
2022-11-28T04:05:50.481Z,10.80
2022-11-28T04:07:01.911Z,8.30
2022-11-28T04:08:19.858Z,8.90
2022-11-28T04:09:41.790Z,8.10
2022-11-28T04:10:59.676Z,9.70
2022-11-28T04:12:07.906Z,9.90
2022-11-28T04:13:33.335Z,11.20
2022-11-28T04:14:38.910Z,13.90
2022-11-28T04:15:56.801Z,12.20
2022-11-28T04:17:05.545Z,13.60
2022-11-28T04:18:20.503Z,17.00
2022-11-28T04:19:32.597Z,14.30
2022-11-28T04:20:38.160Z,17.20
2022-11-28T04:21:53.005Z,11.00
2022-11-28T04:23:01.696Z,11.50
2022-11-28T04:24:08.514Z,14.30
2022-11-28T04:25:14.008Z,14.00
2022-11-28T04:26:31.664Z,10.60
2022-11-28T04:27:37.149Z,14.80
2022-11-28T04:28:40.605Z,15.10
2022-11-28T04:29:49.281Z,15.80
2022-11-28T04:30:53.018Z,14.20
2022-11-28T04:31:58.583Z,16.70
2022-11-28T04:33:05.086Z,16.90
2022-11-28T04:34:11.632Z,14.20
2022-11-28T04:35:20.210Z,12.90
2022-11-28T04:36:24.921Z,20.40
2022-11-28T04:37:29.828Z,18.10
2022-11-28T04:38:33.855Z,14.60
2022-11-28T04:39:37.907Z,16.70
2022-11-28T04:40:55.667Z,17.10
2022-11-28T04:42:01.156Z,18.00
2022-11-28T04:43:06.636Z,16.20
2022-11-28T04:44:12.208Z,16.20
2022-11-28T04:45:17.666Z,17.40
2022-11-28T04:46:23.292Z,15.00
2022-11-28T04:47:25.898Z,14.60
2022-11-28T04:48:34.002Z,16.20
2022-11-28T04:49:32.328Z,19.10
2022-11-28T04:51:53.635Z,22.10
2022-11-28T04:53:01.947Z,24.50
2022-11-28T04:54:13.483Z,17.30
2022-11-28T04:55:27.506Z,17.80
2022-11-28T04:56:33.145Z,16.80
2022-11-28T04:58:05.867Z,21.00
2022-11-28T04:59:08.412Z,17.70
2022-11-28T05:00:13.959Z,22.00
2022-11-28T05:02:52.539Z,26.20
2022-11-28T05:03:55.364Z,26.30
2022-11-28T05:04:57.454Z,25.50
2022-11-28T05:06:01.341Z,27.90
2022-11-28T05:07:05.653Z,25.60
2022-11-28T05:08:07.700Z,26.70
2022-11-28T05:09:10.836Z,25.22
2022-11-28T05:10:13.879Z,24.90
2022-11-28T05:11:16.852Z,22.90
2022-11-28T05:12:18.803Z,16.80
2022-11-28T05:13:20.580Z,16.00
2022-11-28T05:14:22.593Z,13.89
2022-11-28T05:15:24.481Z,14.10
2022-11-28T05:16:26.343Z,12.44
2022-11-28T05:17:28.237Z,13.56
2022-11-28T05:18:29.847Z,11.56
2022-11-28T05:19:32.076Z,12.33
2022-11-28T05:20:35.649Z,13.80
2022-11-28T05:21:37.402Z,15.20
2022-11-28T05:22:39.230Z,15.44
2022-11-28T05:23:44.016Z,15.56
2022-11-28T05:24:46.217Z,14.50
2022-11-28T05:25:48.334Z,12.70
2022-11-28T05:26:50.137Z,14.78
2022-11-28T05:27:52.066Z,14.67
2022-11-28T05:28:53.958Z,16.70
2022-11-28T05:29:56.655Z,21.67
2022-11-28T05:31:00.101Z,21.09
2022-11-28T05:32:02.383Z,17.70
2022-11-28T05:33:04.219Z,22.70
2022-11-28T05:34:07.126Z,16.44
2022-11-28T05:35:09.551Z,23.55
2022-11-28T05:36:13.825Z,27.30
2022-11-28T05:37:16.119Z,29.70
2022-11-28T05:38:18.034Z,31.00
2022-11-28T05:39:19.764Z,28.89
2022-11-28T05:40:21.762Z,32.78
2022-11-28T05:41:30.556Z,32.90
2022-11-28T05:42:34.282Z,14.10
2022-11-28T05:43:36.791Z,26.00
2022-11-28T05:44:40.799Z,22.60
2022-11-28T05:45:44.706Z,22.60
2022-11-28T05:46:47.160Z,19.00
2022-11-28T05:47:49.698Z,18.90
2022-11-28T05:48:51.817Z,18.70
2022-11-28T05:49:53.713Z,17.10
2022-11-28T05:50:55.737Z,20.67
2022-11-28T05:51:57.927Z,28.20
2022-11-28T05:53:00.701Z,25.90
2022-11-28T10:46:07.054Z,16.40
2022-11-28T10:47:18.767Z,14.80
2022-11-28T10:50:00.025Z,17.80
2022-11-28T10:51:20.925Z,18.50
2022-11-28T10:52:38.713Z,12.00
2022-11-28T10:53:48.276Z,18.30
2022-11-28T10:55:07.072Z,16.60
2022-11-28T10:56:31.547Z,18.60
2022-11-28T10:58:03.041Z,23.60
2022-11-28T10:59:31.851Z,28.80
2022-11-28T11:00:35.469Z,26.70
2022-11-28T11:01:43.687Z,21.60
2022-11-28T11:02:50.472Z,22.10
2022-11-28T11:03:52.699Z,19.50
2022-11-28T11:04:54.859Z,17.80
2022-11-28T11:05:57.102Z,17.90
2022-11-28T11:07:29.143Z,15.90
2022-11-28T11:08:29.943Z,15.60
2022-11-28T11:09:32.081Z,17.10
2022-11-28T11:10:42.759Z,14.80
2022-11-28T11:11:48.489Z,17.30
2022-11-28T11:12:52.077Z,15.80
2022-11-28T11:14:00.853Z,13.70
2022-11-28T11:15:21.948Z,16.80
2022-11-28T11:16:25.269Z,13.80
2022-11-28T11:17:36.367Z,12.90
2022-11-28T11:18:47.904Z,15.90
2022-11-28T11:19:50.240Z,8.40
2022-11-28T11:21:12.353Z,15.20
2022-11-28T11:22:23.605Z,16.40
2022-11-28T11:23:25.740Z,13.10
2022-11-28T11:24:28.129Z,14.00
2022-11-28T11:25:31.877Z,11.60
2022-11-28T11:26:37.791Z,13.20
2022-11-28T11:27:49.126Z,10.30
2022-11-28T11:28:51.731Z,12.90
2022-11-28T11:29:54.399Z,12.45
2022-11-28T11:31:02.866Z,14.10
2022-11-28T11:32:06.895Z,11.40
2022-11-28T11:33:15.592Z,14.60
2022-11-28T11:34:20.138Z,12.50
2022-11-28T11:36:38.733Z,14.60
2022-11-28T11:37:40.631Z,13.33
2022-11-28T11:38:42.635Z,13.30
2022-11-28T11:39:52.010Z,12.20
2022-11-28T11:40:54.162Z,10.70
2022-11-28T11:42:02.975Z,12.50
2022-11-28T11:43:09.598Z,12.00
2022-11-28T11:44:21.332Z,11.50
2022-11-28T11:45:32.294Z,10.40
2022-11-28T11:46:38.940Z,11.00
2022-11-28T11:47:43.010Z,9.88
2022-11-28T11:48:49.292Z,10.50
2022-11-28T11:49:54.898Z,5.30
2022-11-28T11:50:57.755Z,11.00
2022-11-28T11:52:18.418Z,9.00
2022-11-28T11:53:20.454Z,10.00
2022-11-28T11:54:22.675Z,9.90
2022-11-28T11:55:27.743Z,11.30
2022-11-28T11:56:33.121Z,11.20
2022-11-28T11:57:42.000Z,9.50
2022-11-28T11:58:50.438Z,11.50
2022-11-28T12:00:17.821Z,14.40
2022-11-28T12:01:22.221Z,14.20
2022-11-28T12:02:37.157Z,16.20
2022-11-28T12:03:43.037Z,14.90
2022-11-28T12:04:53.919Z,15.50
2022-11-28T12:07:04.017Z,20.10
2022-11-28T12:08:19.646Z,19.80
2022-11-28T12:09:31.400Z,18.50
2022-11-28T12:10:38.142Z,20.60
2022-11-28T12:11:46.934Z,18.60
2022-11-28T12:12:48.025Z,17.40
2022-11-28T12:13:51.007Z,15.10
2022-11-28T12:14:53.260Z,13.30
2022-11-28T12:16:17.404Z,11.30
2022-11-28T12:17:53.379Z,8.20
2022-11-28T12:19:12.625Z,11.10
2022-11-28T12:20:45.912Z,12.00
2022-11-28T12:21:54.431Z,16.20
2022-11-28T12:23:17.194Z,13.70
2022-11-28T12:24:19.808Z,10.80
2022-11-28T12:25:37.738Z,11.90
2022-11-28T12:26:52.196Z,11.90
2022-11-28T14:29:27.483Z,21.20
2022-11-28T14:30:39.055Z,16.20
2022-11-28T14:32:06.570Z,14.70
2022-11-28T14:32:52.338Z,15.50
2022-11-28T14:33:59.181Z,17.00
2022-11-28T14:35:04.214Z,12.10
2022-11-28T14:36:28.085Z,17.70
2022-11-28T14:37:35.610Z,12.70
2022-11-28T14:38:40.556Z,4.60
2022-11-28T14:39:42.595Z,15.50
2022-11-28T14:41:01.463Z,12.50
2022-11-28T14:42:07.468Z,14.40
2022-11-28T14:43:27.989Z,21.40
2022-11-28T14:44:51.213Z,19.20
2022-11-28T14:46:13.888Z,23.70
2022-11-28T14:47:31.990Z,23.20
2022-11-28T14:48:34.891Z,27.70
2022-11-28T14:49:36.955Z,27.70
2022-11-28T14:50:43.195Z,25.80
2022-11-28T14:51:48.975Z,19.00
2022-11-28T14:52:56.620Z,20.90
2022-11-28T14:53:58.837Z,19.80
2022-11-28T14:55:13.885Z,19.80
2022-11-28T14:56:25.787Z,6.30
2022-11-28T14:57:31.273Z,15.20
2022-11-28T14:58:34.646Z,14.50
2022-11-28T14:59:39.214Z,13.00
2022-11-28T15:00:54.478Z,13.90
2022-11-28T15:02:14.545Z,14.80
2022-11-28T15:03:35.213Z,11.20
2022-11-28T15:05:00.872Z,14.60
2022-11-28T15:06:19.601Z,14.70
2022-11-28T15:07:46.244Z,13.80
2022-11-28T15:09:03.317Z,12.90
2022-11-28T15:10:38.595Z,13.30
2022-11-28T15:12:05.318Z,12.70
2022-11-28T15:13:11.675Z,13.00
2022-11-28T15:14:22.837Z,16.20
2022-11-28T15:15:25.105Z,15.20
2022-11-28T15:16:33.217Z,14.40
2022-11-28T15:17:36.566Z,14.60
2022-11-28T15:18:45.496Z,16.50
2022-11-28T15:19:50.035Z,15.70
2022-11-28T15:20:58.858Z,19.30
2022-11-28T15:22:01.648Z,17.30
2022-11-28T15:23:05.850Z,19.80
2022-11-28T15:24:23.862Z,19.80
2022-11-28T15:25:29.036Z,21.50
2022-11-28T15:26:32.795Z,21.40
2022-11-28T15:27:34.650Z,19.11
2022-11-28T15:28:37.226Z,17.90
2022-11-28T15:29:39.092Z,19.67
2022-11-28T15:30:48.827Z,15.60
2022-11-28T15:31:54.465Z,19.00
2022-11-28T15:32:59.596Z,17.50
2022-11-28T15:34:02.808Z,17.40
2022-11-28T15:35:12.375Z,16.90
2022-11-28T15:37:53.798Z,14.80
2022-11-28T15:38:57.783Z,15.70
2022-11-28T15:40:03.822Z,14.40
2022-11-28T15:41:06.178Z,13.80
2022-11-28T15:42:17.880Z,15.78
2022-11-28T15:43:21.157Z,14.50
2022-11-28T15:44:24.069Z,14.40
2022-11-28T15:45:33.483Z,13.80
2022-11-28T15:46:36.865Z,16.20
2022-11-28T15:47:40.101Z,15.50
2022-11-28T15:48:51.133Z,17.80
2022-11-28T15:50:05.757Z,18.00
2022-11-28T15:51:10.205Z,16.50
2022-11-28T15:52:17.134Z,16.70
2022-11-28T15:53:20.440Z,17.80
2022-11-28T15:54:38.100Z,23.09
2022-11-28T15:55:40.142Z,22.40
2022-11-28T15:56:58.768Z,20.10
2022-11-28T15:58:19.702Z,17.40
2022-11-28T15:59:22.801Z,16.90
2022-11-28T16:00:25.483Z,16.80
2022-11-28T16:01:29.422Z,15.36
2022-11-28T16:02:34.944Z,17.90
2022-11-28T16:03:55.919Z,18.10
2022-11-28T16:05:07.800Z,18.70
2022-11-28T16:06:11.138Z,17.90
2022-11-28T16:07:15.325Z,22.64
2022-11-28T16:08:21.132Z,18.40
2022-11-28T16:09:29.833Z,14.50
2022-11-28T16:10:35.844Z,16.20
2022-11-28T16:11:37.908Z,18.20
2022-11-28T16:12:40.814Z,21.40
2022-11-28T16:13:44.118Z,16.70
2022-11-28T16:14:46.695Z,19.10
2022-11-28T16:15:50.620Z,20.40
2022-11-28T16:16:53.681Z,19.60
2022-11-28T16:17:58.325Z,19.82
2022-11-28T16:19:04.059Z,21.50
2022-11-28T16:20:07.404Z,19.70
2022-11-28T16:21:13.192Z,20.30
2022-11-28T16:22:20.601Z,20.20
2022-11-28T16:23:34.594Z,21.40
2022-11-28T16:24:49.615Z,23.30
2022-11-28T16:26:06.447Z,25.30
2022-11-28T16:27:37.129Z,28.40
2022-11-28T16:28:40.712Z,27.40
2022-11-28T16:29:48.627Z,24.60
2022-11-28T16:30:50.682Z,30.80
2022-11-28T16:31:53.054Z,29.80
2022-11-28T16:32:56.293Z,30.80
2022-11-28T16:34:00.179Z,32.09
2022-11-28T16:35:03.711Z,29.60
2022-11-28T16:36:17.384Z,31.90
2022-11-28T16:37:24.641Z,30.90
2022-11-28T16:38:27.928Z,29.60
2022-11-28T16:39:35.285Z,31.70
2022-11-28T16:40:34.264Z,31.50
2022-11-28T16:41:39.050Z,31.80
2022-11-28T16:42:41.476Z,32.50
2022-11-28T16:43:48.139Z,31.20
2022-11-28T16:44:50.184Z,33.30
2022-11-28T16:46:00.349Z,32.00
2022-11-28T16:47:02.824Z,30.90
2022-11-28T16:48:07.625Z,32.00
2022-11-28T16:49:31.548Z,22.80
2022-11-28T16:50:34.463Z,31.80
2022-11-28T16:51:39.737Z,25.80
2022-11-28T16:52:47.315Z,28.70
2022-11-28T16:53:53.067Z,31.10
2022-11-28T16:54:56.181Z,24.80
2022-11-28T16:55:58.893Z,28.90
2022-11-28T16:57:12.406Z,26.80
2022-11-28T16:58:18.830Z,29.00
2022-11-28T16:59:23.218Z,29.00
2022-11-28T17:00:25.346Z,25.70
2022-11-28T17:01:27.796Z,28.60
2022-11-28T17:02:30.317Z,30.80
2022-11-28T17:03:52.839Z,27.00
2022-11-28T17:04:54.751Z,27.60
2022-11-28T17:05:56.521Z,20.56
2022-11-28T17:07:00.940Z,28.00
2022-11-28T17:08:03.016Z,30.60
2022-11-28T17:09:08.316Z,30.56
2022-11-28T17:10:14.356Z,30.70
2022-11-28T17:11:20.182Z,29.90
2022-11-28T17:12:33.220Z,32.50
2022-11-28T17:13:35.504Z,35.60
2022-11-28T17:14:37.357Z,35.20
2022-11-28T17:15:39.660Z,34.11
2022-11-28T17:16:42.220Z,35.70
2022-11-28T17:17:46.954Z,38.10
2022-11-28T17:18:49.706Z,35.40
2022-11-28T17:19:51.788Z,33.00
2022-11-28T17:20:53.703Z,34.50
2022-11-28T17:21:58.728Z,30.11
2022-11-28T17:23:01.490Z,33.90
2022-11-28T17:24:04.742Z,29.60
2022-11-28T17:25:09.838Z,30.40
2022-11-28T17:26:12.945Z,31.50
2022-11-28T17:27:16.025Z,27.90
2022-11-28T17:28:22.282Z,28.80
2022-11-28T17:29:22.891Z,27.00
2022-11-28T17:30:25.996Z,30.91
2022-11-28T17:31:27.778Z,29.55
2022-11-28T17:32:29.609Z,26.56
2022-11-28T17:33:33.277Z,24.11
2022-11-28T17:34:35.623Z,23.90
2022-11-28T17:35:41.700Z,25.80
2022-11-28T17:36:44.531Z,23.00
2022-11-28T17:37:48.777Z,25.40
2022-11-28T17:38:51.878Z,26.90
2022-11-28T17:39:54.803Z,29.80
2022-11-28T17:40:56.808Z,26.70
2022-11-28T17:41:58.746Z,26.78
2022-11-28T17:43:00.870Z,27.89
2022-11-28T17:44:03.199Z,25.30
2022-11-28T17:45:14.598Z,22.60
2022-11-28T22:34:11.494Z,14.80
2022-11-28T22:35:14.298Z,9.70
2022-11-28T22:36:19.185Z,15.90
2022-11-28T22:37:21.416Z,14.00
2022-11-28T22:38:23.554Z,14.67
2022-11-28T22:39:26.034Z,16.00
2022-11-28T22:40:28.045Z,6.90
2022-11-28T22:41:30.419Z,11.67
2022-11-28T22:42:36.674Z,9.50
2022-11-28T22:43:40.209Z,9.10
2022-11-28T22:44:42.666Z,9.00
2022-11-28T22:45:45.079Z,9.60
2022-11-28T22:46:47.695Z,7.50
2022-11-28T22:47:49.427Z,11.56
2022-11-28T22:48:51.151Z,10.00
2022-11-28T22:49:52.877Z,11.33
2022-11-28T22:50:54.824Z,9.00
2022-11-28T22:51:57.301Z,8.10
2022-11-28T22:52:59.039Z,8.78
2022-11-28T22:54:01.964Z,9.22
2022-11-28T22:55:05.493Z,9.70
2022-11-28T22:56:11.556Z,9.40
2022-11-28T22:57:14.333Z,6.50
2022-11-28T22:58:16.544Z,9.45
2022-11-28T22:59:18.770Z,8.30
2022-11-28T23:00:21.272Z,9.70
2022-11-28T23:01:26.726Z,8.60
2022-11-28T23:02:29.100Z,9.10
2022-11-28T23:03:31.190Z,8.30
2022-11-28T23:04:33.339Z,7.20
2022-11-28T23:05:37.715Z,9.89
2022-11-28T23:06:39.959Z,7.80
2022-11-28T23:07:42.162Z,7.70
2022-11-28T23:08:45.199Z,4.30
2022-11-28T23:09:54.190Z,7.00
2022-11-28T23:10:57.303Z,7.60
2022-11-28T23:12:00.567Z,9.09
2022-11-28T23:13:03.976Z,6.90
2022-11-28T23:14:06.597Z,5.30
2022-11-28T23:15:09.661Z,6.60
2022-11-28T23:16:15.342Z,6.30
2022-11-28T23:17:17.244Z,7.60
2022-11-28T23:18:19.444Z,9.89
2022-11-28T23:19:21.649Z,9.40
2022-11-28T23:20:24.116Z,1.50
2022-11-28T23:21:29.603Z,8.89
2022-11-28T23:22:31.602Z,5.20
2022-11-28T23:23:36.598Z,8.22
2022-11-28T23:24:38.402Z,8.60
2022-11-28T23:25:40.353Z,6.78
2022-11-28T23:26:43.324Z,6.20
2022-11-28T23:27:45.217Z,7.00
2022-11-28T23:28:48.368Z,6.67
2022-11-28T23:29:51.200Z,5.60
2022-11-28T23:30:53.642Z,4.90
2022-11-28T23:31:56.061Z,5.82
2022-11-28T23:32:59.820Z,6.50
2022-11-28T23:34:02.406Z,6.60
2022-11-28T23:35:05.141Z,5.30
2022-11-28T23:36:20.072Z,6.50
2022-11-28T23:37:22.510Z,6.00
2022-11-28T23:38:24.236Z,6.56
2022-11-28T23:39:26.679Z,4.89
2022-11-28T23:40:30.391Z,2.60
2022-11-28T23:41:32.924Z,7.33
2022-11-28T23:42:35.752Z,6.00
2022-11-28T23:43:39.190Z,6.36
2022-11-28T23:44:41.202Z,6.70
2022-11-28T23:45:43.122Z,7.80
2022-11-28T23:46:46.771Z,5.89
2022-11-28T23:47:48.608Z,6.20
2022-11-28T23:48:51.002Z,3.33
2022-11-28T23:49:52.825Z,5.90
2022-11-28T23:50:54.740Z,6.00
2022-11-28T23:51:56.738Z,7.30
2022-11-28T23:52:58.414Z,6.22
2022-11-28T23:54:00.635Z,6.56
2022-11-28T23:55:02.673Z,6.80
2022-11-28T23:56:07.743Z,5.60
2022-11-28T23:57:09.662Z,6.10
2022-11-28T23:58:11.596Z,6.56
2022-11-28T23:59:13.292Z,7.67
